sensor_id;sensor_type;location;lat;lon;timestamp;P1;durP1;ratioP1;P2;durP2;ratioP2
24801;SDS011;12898;50.520;12.152;2023-07-28T00:02:10;3.10;;;2.47;;
24801;SDS011;12898;50.520;12.152;2023-07-28T00:04:36;9.07;;;2.63;;
24801;SDS011;12898;50.520;12.152;2023-07-28T00:07:02;3.78;;;2.22;;
24801;SDS011;12898;50.520;12.152;2023-07-28T00:09:28;4.57;;;2.40;;
24801;SDS011;12898;50.520;12.152;2023-07-28T00:11:55;3.85;;;2.40;;
24801;SDS011;12898;50.520;12.152;2023-07-28T00:14:22;5.45;;;2.92;;
24801;SDS011;12898;50.520;12.152;2023-07-28T00:16:50;4.55;;;2.05;;
24801;SDS011;12898;50.520;12.152;2023-07-28T00:19:20;4.18;;;2.42;;
24801;SDS011;12898;50.520;12.152;2023-07-28T00:21:47;2.92;;;1.95;;
24801;SDS011;12898;50.520;12.152;2023-07-28T00:24:13;3.53;;;2.38;;
24801;SDS011;12898;50.520;12.152;2023-07-28T00:26:39;4.10;;;2.17;;
24801;SDS011;12898;50.520;12.152;2023-07-28T00:29:05;5.40;;;2.28;;
24801;SDS011;12898;50.520;12.152;2023-07-28T00:31:31;3.97;;;2.90;;
24801;SDS011;12898;50.520;12.152;2023-07-28T00:33:57;6.85;;;2.80;;
24801;SDS011;12898;50.520;12.152;2023-07-28T00:36:23;5.22;;;2.90;;
24801;SDS011;12898;50.520;12.152;2023-07-28T00:38:48;3.75;;;2.40;;
24801;SDS011;12898;50.520;12.152;2023-07-28T00:41:14;5.10;;;2.75;;
24801;SDS011;12898;50.520;12.152;2023-07-28T00:43:40;6.45;;;2.90;;
24801;SDS011;12898;50.520;12.152;2023-07-28T00:46:06;3.90;;;2.67;;
24801;SDS011;12898;50.520;12.152;2023-07-28T00:48:32;6.20;;;3.25;;
24801;SDS011;12898;50.520;12.152;2023-07-28T00:50:58;6.68;;;2.67;;
24801;SDS011;12898;50.520;12.152;2023-07-28T00:53:24;4.15;;;2.55;;
24801;SDS011;12898;50.520;12.152;2023-07-28T00:55:49;5.45;;;2.40;;
24801;SDS011;12898;50.520;12.152;2023-07-28T00:58:16;5.13;;;2.42;;
24801;SDS011;12898;50.520;12.152;2023-07-28T01:00:42;6.43;;;2.83;;
24801;SDS011;12898;50.520;12.152;2023-07-28T01:03:08;4.70;;;3.05;;
24801;SDS011;12898;50.520;12.152;2023-07-28T01:05:55;4.70;;;2.75;;
24801;SDS011;12898;50.520;12.152;2023-07-28T01:08:46;4.78;;;2.63;;
24801;SDS011;12898;50.520;12.152;2023-07-28T01:11:28;4.65;;;2.50;;
24801;SDS011;12898;50.520;12.152;2023-07-28T01:13:55;3.90;;;2.50;;
24801;SDS011;12898;50.520;12.152;2023-07-28T01:16:20;5.75;;;2.60;;
24801;SDS011;12898;50.520;12.152;2023-07-28T01:18:46;6.15;;;2.75;;
24801;SDS011;12898;50.520;12.152;2023-07-28T01:21:14;6.22;;;2.42;;
24801;SDS011;12898;50.520;12.152;2023-07-28T01:26:31;5.85;;;2.58;;
24801;SDS011;12898;50.520;12.152;2023-07-28T01:28:59;4.47;;;2.92;;
24801;SDS011;12898;50.520;12.152;2023-07-28T01:31:27;6.88;;;2.83;;
24801;SDS011;12898;50.520;12.152;2023-07-28T01:33:52;4.22;;;2.20;;
24801;SDS011;12898;50.520;12.152;2023-07-28T01:36:18;6.28;;;2.38;;
24801;SDS011;12898;50.520;12.152;2023-07-28T01:38:44;3.13;;;2.30;;
24801;SDS011;12898;50.520;12.152;2023-07-28T01:41:09;6.07;;;2.83;;
24801;SDS011;12898;50.520;12.152;2023-07-28T01:43:35;4.90;;;2.42;;
24801;SDS011;12898;50.520;12.152;2023-07-28T01:46:01;4.95;;;2.55;;
24801;SDS011;12898;50.520;12.152;2023-07-28T01:48:26;4.53;;;2.28;;
24801;SDS011;12898;50.520;12.152;2023-07-28T01:50:52;3.45;;;2.10;;
24801;SDS011;12898;50.520;12.152;2023-07-28T01:53:18;2.38;;;2.17;;
24801;SDS011;12898;50.520;12.152;2023-07-28T01:55:43;4.55;;;2.25;;
24801;SDS011;12898;50.520;12.152;2023-07-28T01:58:09;5.15;;;2.13;;
24801;SDS011;12898;50.520;12.152;2023-07-28T02:00:35;3.47;;;1.83;;
24801;SDS011;12898;50.520;12.152;2023-07-28T02:03:00;3.28;;;1.88;;
24801;SDS011;12898;50.520;12.152;2023-07-28T02:05:29;2.22;;;1.60;;
24801;SDS011;12898;50.520;12.152;2023-07-28T02:07:55;2.78;;;1.70;;
24801;SDS011;12898;50.520;12.152;2023-07-28T02:10:22;2.53;;;1.80;;
24801;SDS011;12898;50.520;12.152;2023-07-28T02:12:48;3.33;;;1.92;;
24801;SDS011;12898;50.520;12.152;2023-07-28T02:15:16;2.72;;;1.45;;
24801;SDS011;12898;50.520;12.152;2023-07-28T02:17:42;4.70;;;1.92;;
24801;SDS011;12898;50.520;12.152;2023-07-28T02:20:07;2.05;;;1.67;;
24801;SDS011;12898;50.520;12.152;2023-07-28T02:22:37;5.13;;;1.70;;
24801;SDS011;12898;50.520;12.152;2023-07-28T02:25:04;4.65;;;1.80;;
24801;SDS011;12898;50.520;12.152;2023-07-28T02:27:31;2.03;;;1.77;;
24801;SDS011;12898;50.520;12.152;2023-07-28T02:29:57;1.58;;;1.40;;
24801;SDS011;12898;50.520;12.152;2023-07-28T02:32:22;3.03;;;1.50;;
24801;SDS011;12898;50.520;12.152;2023-07-28T02:34:48;2.20;;;1.60;;
24801;SDS011;12898;50.520;12.152;2023-07-28T02:37:15;2.42;;;1.58;;
24801;SDS011;12898;50.520;12.152;2023-07-28T02:39:41;1.83;;;1.50;;
24801;SDS011;12898;50.520;12.152;2023-07-28T02:42:06;2.90;;;1.70;;
24801;SDS011;12898;50.520;12.152;2023-07-28T02:44:32;1.85;;;1.65;;
24801;SDS011;12898;50.520;12.152;2023-07-28T02:46:58;2.47;;;1.45;;
24801;SDS011;12898;50.520;12.152;2023-07-28T02:49:23;2.45;;;1.58;;
24801;SDS011;12898;50.520;12.152;2023-07-28T02:51:49;2.05;;;1.30;;
24801;SDS011;12898;50.520;12.152;2023-07-28T02:54:15;1.40;;;1.23;;
24801;SDS011;12898;50.520;12.152;2023-07-28T02:56:40;2.88;;;1.77;;
24801;SDS011;12898;50.520;12.152;2023-07-28T02:59:06;4.10;;;1.55;;
24801;SDS011;12898;50.520;12.152;2023-07-28T03:01:32;3.70;;;1.75;;
24801;SDS011;12898;50.520;12.152;2023-07-28T03:04:00;4.25;;;1.70;;
24801;SDS011;12898;50.520;12.152;2023-07-28T03:06:27;1.85;;;1.38;;
24801;SDS011;12898;50.520;12.152;2023-07-28T03:08:53;3.25;;;1.10;;
24801;SDS011;12898;50.520;12.152;2023-07-28T03:11:19;2.13;;;1.40;;
24801;SDS011;12898;50.520;12.152;2023-07-28T03:13:44;1.52;;;1.40;;
24801;SDS011;12898;50.520;12.152;2023-07-28T03:16:11;2.17;;;1.50;;
24801;SDS011;12898;50.520;12.152;2023-07-28T03:18:37;4.95;;;1.52;;
24801;SDS011;12898;50.520;12.152;2023-07-28T03:21:03;1.85;;;1.40;;
24801;SDS011;12898;50.520;12.152;2023-07-28T03:23:29;2.38;;;1.15;;
24801;SDS011;12898;50.520;12.152;2023-07-28T03:25:54;2.22;;;1.30;;
24801;SDS011;12898;50.520;12.152;2023-07-28T03:28:20;4.53;;;1.27;;
24801;SDS011;12898;50.520;12.152;2023-07-28T03:30:46;1.20;;;1.10;;
24801;SDS011;12898;50.520;12.152;2023-07-28T03:33:11;2.50;;;1.08;;
24801;SDS011;12898;50.520;12.152;2023-07-28T03:35:37;3.17;;;1.40;;
24801;SDS011;12898;50.520;12.152;2023-07-28T03:38:03;1.55;;;1.23;;
24801;SDS011;12898;50.520;12.152;2023-07-28T03:40:29;1.73;;;1.10;;
24801;SDS011;12898;50.520;12.152;2023-07-28T03:42:54;1.40;;;1.10;;
24801;SDS011;12898;50.520;12.152;2023-07-28T03:45:20;3.42;;;1.17;;
24801;SDS011;12898;50.520;12.152;2023-07-28T03:47:46;2.35;;;1.10;;
24801;SDS011;12898;50.520;12.152;2023-07-28T03:50:12;1.92;;;1.08;;
24801;SDS011;12898;50.520;12.152;2023-07-28T03:52:37;2.70;;;1.20;;
24801;SDS011;12898;50.520;12.152;2023-07-28T03:55:03;3.53;;;1.40;;
24801;SDS011;12898;50.520;12.152;2023-07-28T03:57:29;2.53;;;1.20;;
24801;SDS011;12898;50.520;12.152;2023-07-28T03:59:55;2.13;;;1.20;;
24801;SDS011;12898;50.520;12.152;2023-07-28T04:02:20;6.38;;;1.30;;
24801;SDS011;12898;50.520;12.152;2023-07-28T04:04:46;1.33;;;1.20;;
24801;SDS011;12898;50.520;12.152;2023-07-28T04:07:12;2.95;;;1.20;;
24801;SDS011;12898;50.520;12.152;2023-07-28T04:09:37;1.77;;;1.05;;
24801;SDS011;12898;50.520;12.152;2023-07-28T04:12:03;1.98;;;1.45;;
24801;SDS011;12898;50.520;12.152;2023-07-28T04:14:29;2.53;;;1.40;;
24801;SDS011;12898;50.520;12.152;2023-07-28T04:16:55;3.28;;;1.60;;
24801;SDS011;12898;50.520;12.152;2023-07-28T04:19:20;2.25;;;1.42;;
24801;SDS011;12898;50.520;12.152;2023-07-28T04:21:46;4.57;;;1.33;;
24801;SDS011;12898;50.520;12.152;2023-07-28T04:24:12;1.30;;;1.20;;
24801;SDS011;12898;50.520;12.152;2023-07-28T04:26:37;1.65;;;1.35;;
24801;SDS011;12898;50.520;12.152;2023-07-28T04:29:03;3.70;;;1.40;;
24801;SDS011;12898;50.520;12.152;2023-07-28T04:31:29;2.13;;;1.40;;
24801;SDS011;12898;50.520;12.152;2023-07-28T04:33:55;1.60;;;1.08;;
24801;SDS011;12898;50.520;12.152;2023-07-28T04:36:20;1.80;;;1.40;;
24801;SDS011;12898;50.520;12.152;2023-07-28T04:38:46;3.75;;;1.30;;
24801;SDS011;12898;50.520;12.152;2023-07-28T04:41:12;2.33;;;1.38;;
24801;SDS011;12898;50.520;12.152;2023-07-28T04:43:37;2.05;;;1.17;;
24801;SDS011;12898;50.520;12.152;2023-07-28T04:46:03;0.80;;;0.80;;
24801;SDS011;12898;50.520;12.152;2023-07-28T04:48:29;1.08;;;0.98;;
24801;SDS011;12898;50.520;12.152;2023-07-28T04:50:54;1.20;;;1.10;;
24801;SDS011;12898;50.520;12.152;2023-07-28T04:53:20;2.33;;;1.20;;
24801;SDS011;12898;50.520;12.152;2023-07-28T04:55:46;1.77;;;1.20;;
24801;SDS011;12898;50.520;12.152;2023-07-28T04:58:11;2.92;;;1.20;;
24801;SDS011;12898;50.520;12.152;2023-07-28T05:00:37;2.03;;;1.05;;
24801;SDS011;12898;50.520;12.152;2023-07-28T05:03:03;4.97;;;1.27;;
24801;SDS011;12898;50.520;12.152;2023-07-28T05:05:29;1.13;;;0.90;;
24801;SDS011;12898;50.520;12.152;2023-07-28T05:07:55;4.22;;;1.20;;
24801;SDS011;12898;50.520;12.152;2023-07-28T05:10:20;1.00;;;0.90;;
24801;SDS011;12898;50.520;12.152;2023-07-28T05:12:46;1.92;;;0.98;;
24801;SDS011;12898;50.520;12.152;2023-07-28T05:15:13;2.20;;;1.20;;
24801;SDS011;12898;50.520;12.152;2023-07-28T05:17:40;1.60;;;1.05;;
24801;SDS011;12898;50.520;12.152;2023-07-28T05:20:06;1.10;;;0.93;;
24801;SDS011;12898;50.520;12.152;2023-07-28T05:22:32;1.40;;;0.95;;
24801;SDS011;12898;50.520;12.152;2023-07-28T05:24:58;1.20;;;0.88;;
24801;SDS011;12898;50.520;12.152;2023-07-28T05:27:23;4.22;;;0.98;;
24801;SDS011;12898;50.520;12.152;2023-07-28T05:29:49;1.17;;;1.08;;
24801;SDS011;12898;50.520;12.152;2023-07-28T05:32:15;2.40;;;0.82;;
24801;SDS011;12898;50.520;12.152;2023-07-28T05:34:44;1.02;;;0.77;;
24801;SDS011;12898;50.520;12.152;2023-07-28T05:37:10;0.88;;;0.80;;
24801;SDS011;12898;50.520;12.152;2023-07-28T05:39:36;0.63;;;0.63;;
24801;SDS011;12898;50.520;12.152;2023-07-28T05:42:01;1.55;;;0.70;;
24801;SDS011;12898;50.520;12.152;2023-07-28T05:44:27;2.42;;;0.70;;
24801;SDS011;12898;50.520;12.152;2023-07-28T05:46:54;1.30;;;0.85;;
24801;SDS011;12898;50.520;12.152;2023-07-28T05:49:19;1.52;;;0.90;;
24801;SDS011;12898;50.520;12.152;2023-07-28T05:51:45;1.08;;;0.70;;
24801;SDS011;12898;50.520;12.152;2023-07-28T05:54:14;1.30;;;0.63;;
24801;SDS011;12898;50.520;12.152;2023-07-28T05:56:40;2.38;;;0.55;;
24801;SDS011;12898;50.520;12.152;2023-07-28T05:59:06;1.65;;;0.80;;
24801;SDS011;12898;50.520;12.152;2023-07-28T06:01:32;1.25;;;0.70;;
24801;SDS011;12898;50.520;12.152;2023-07-28T06:03:58;0.75;;;0.50;;
24801;SDS011;12898;50.520;12.152;2023-07-28T06:06:24;1.92;;;0.70;;
24801;SDS011;12898;50.520;12.152;2023-07-28T06:08:51;0.93;;;0.63;;
24801;SDS011;12898;50.520;12.152;2023-07-28T06:11:17;4.28;;;0.68;;
24801;SDS011;12898;50.520;12.152;2023-07-28T06:13:43;1.33;;;0.70;;
24801;SDS011;12898;50.520;12.152;2023-07-28T06:16:10;0.57;;;0.57;;
24801;SDS011;12898;50.520;12.152;2023-07-28T06:18:35;3.95;;;0.50;;
24801;SDS011;12898;50.520;12.152;2023-07-28T06:21:01;0.40;;;0.40;;
24801;SDS011;12898;50.520;12.152;2023-07-28T06:23:27;2.28;;;0.63;;
24801;SDS011;12898;50.520;12.152;2023-07-28T06:25:52;0.85;;;0.70;;
24801;SDS011;12898;50.520;12.152;2023-07-28T06:28:19;0.52;;;0.52;;
24801;SDS011;12898;50.520;12.152;2023-07-28T06:30:45;1.40;;;0.40;;
24801;SDS011;12898;50.520;12.152;2023-07-28T06:33:11;1.45;;;0.43;;
24801;SDS011;12898;50.520;12.152;2023-07-28T06:35:37;1.67;;;0.40;;
24801;SDS011;12898;50.520;12.152;2023-07-28T06:38:03;0.50;;;0.50;;
24801;SDS011;12898;50.520;12.152;2023-07-28T06:40:29;0.32;;;0.32;;
24801;SDS011;12898;50.520;12.152;2023-07-28T06:42:55;2.05;;;0.40;;
24801;SDS011;12898;50.520;12.152;2023-07-28T06:45:20;2.42;;;0.73;;
24801;SDS011;12898;50.520;12.152;2023-07-28T06:47:46;1.02;;;0.60;;
24801;SDS011;12898;50.520;12.152;2023-07-28T06:50:12;1.67;;;0.68;;
24801;SDS011;12898;50.520;12.152;2023-07-28T06:52:39;1.30;;;0.45;;
24801;SDS011;12898;50.520;12.152;2023-07-28T06:55:05;0.60;;;0.50;;
24801;SDS011;12898;50.520;12.152;2023-07-28T06:57:31;0.60;;;0.60;;
24801;SDS011;12898;50.520;12.152;2023-07-28T06:59:57;3.50;;;1.13;;
24801;SDS011;12898;50.520;12.152;2023-07-28T07:02:22;1.70;;;0.80;;
24801;SDS011;12898;50.520;12.152;2023-07-28T07:04:48;1.65;;;0.55;;
24801;SDS011;12898;50.520;12.152;2023-07-28T07:07:14;0.77;;;0.70;;
24801;SDS011;12898;50.520;12.152;2023-07-28T07:09:40;2.38;;;0.90;;
24801;SDS011;12898;50.520;12.152;2023-07-28T07:12:07;1.13;;;0.80;;
24801;SDS011;12898;50.520;12.152;2023-07-28T07:14:33;1.08;;;0.77;;
24801;SDS011;12898;50.520;12.152;2023-07-28T07:16:59;0.80;;;0.80;;
24801;SDS011;12898;50.520;12.152;2023-07-28T07:19:25;3.70;;;0.90;;
24801;SDS011;12898;50.520;12.152;2023-07-28T07:21:53;1.42;;;0.82;;
24801;SDS011;12898;50.520;12.152;2023-07-28T07:24:20;3.55;;;1.10;;
24801;SDS011;12898;50.520;12.152;2023-07-28T07:26:46;2.83;;;1.00;;
24801;SDS011;12898;50.520;12.152;2023-07-28T07:29:11;1.17;;;0.90;;
24801;SDS011;12898;50.520;12.152;2023-07-28T07:31:38;1.35;;;0.70;;
24801;SDS011;12898;50.520;12.152;2023-07-28T07:34:03;2.70;;;1.00;;
24801;SDS011;12898;50.520;12.152;2023-07-28T07:36:30;1.25;;;0.80;;
24801;SDS011;12898;50.520;12.152;2023-07-28T07:38:56;2.97;;;1.13;;
24801;SDS011;12898;50.520;12.152;2023-07-28T07:41:22;1.27;;;1.00;;
24801;SDS011;12898;50.520;12.152;2023-07-28T07:43:49;1.40;;;0.98;;
24801;SDS011;12898;50.520;12.152;2023-07-28T07:46:17;2.40;;;1.17;;
24801;SDS011;12898;50.520;12.152;2023-07-28T07:48:44;2.38;;;1.10;;
24801;SDS011;12898;50.520;12.152;2023-07-28T07:51:10;1.52;;;1.23;;
24801;SDS011;12898;50.520;12.152;2023-07-28T07:53:36;1.60;;;1.10;;
24801;SDS011;12898;50.520;12.152;2023-07-28T07:56:03;1.35;;;1.05;;
24801;SDS011;12898;50.520;12.152;2023-07-28T07:58:29;3.97;;;1.35;;
24801;SDS011;12898;50.520;12.152;2023-07-28T08:00:55;1.20;;;1.10;;
24801;SDS011;12898;50.520;12.152;2023-07-28T08:03:21;1.77;;;1.20;;
24801;SDS011;12898;50.520;12.152;2023-07-28T08:05:47;1.65;;;1.20;;
24801;SDS011;12898;50.520;12.152;2023-07-28T08:08:13;2.28;;;1.15;;
24801;SDS011;12898;50.520;12.152;2023-07-28T08:10:42;3.80;;;1.23;;
24801;SDS011;12898;50.520;12.152;2023-07-28T08:13:09;2.90;;;1.20;;
24801;SDS011;12898;50.520;12.152;2023-07-28T08:15:35;4.63;;;1.02;;
24801;SDS011;12898;50.520;12.152;2023-07-28T08:18:00;1.05;;;0.90;;
24801;SDS011;12898;50.520;12.152;2023-07-28T08:20:26;3.05;;;0.95;;
24801;SDS011;12898;50.520;12.152;2023-07-28T08:22:52;1.45;;;0.90;;
24801;SDS011;12898;50.520;12.152;2023-07-28T08:25:17;3.60;;;1.02;;
24801;SDS011;12898;50.520;12.152;2023-07-28T08:27:43;1.00;;;0.90;;
24801;SDS011;12898;50.520;12.152;2023-07-28T08:30:09;1.10;;;1.00;;
24801;SDS011;12898;50.520;12.152;2023-07-28T08:32:35;1.88;;;0.98;;
24801;SDS011;12898;50.520;12.152;2023-07-28T08:35:01;1.20;;;0.90;;
24801;SDS011;12898;50.520;12.152;2023-07-28T08:37:28;6.93;;;1.63;;
24801;SDS011;12898;50.520;12.152;2023-07-28T08:39:54;1.50;;;1.30;;
24801;SDS011;12898;50.520;12.152;2023-07-28T08:42:20;2.33;;;2.00;;
24801;SDS011;12898;50.520;12.152;2023-07-28T08:44:47;1.20;;;1.10;;
24801;SDS011;12898;50.520;12.152;2023-07-28T08:47:13;0.90;;;0.90;;
24801;SDS011;12898;50.520;12.152;2023-07-28T08:49:39;3.20;;;1.20;;
24801;SDS011;12898;50.520;12.152;2023-07-28T08:52:05;2.72;;;0.73;;
24801;SDS011;12898;50.520;12.152;2023-07-28T08:54:31;2.20;;;1.10;;
24801;SDS011;12898;50.520;12.152;2023-07-28T08:56:57;1.55;;;1.17;;
24801;SDS011;12898;50.520;12.152;2023-07-28T08:59:23;1.25;;;1.15;;
24801;SDS011;12898;50.520;12.152;2023-07-28T09:01:51;0.90;;;0.90;;
24801;SDS011;12898;50.520;12.152;2023-07-28T09:04:19;2.85;;;1.08;;
24801;SDS011;12898;50.520;12.152;2023-07-28T09:06:46;1.08;;;0.80;;
24801;SDS011;12898;50.520;12.152;2023-07-28T09:09:16;2.50;;;1.30;;
24801;SDS011;12898;50.520;12.152;2023-07-28T09:11:48;1.30;;;1.20;;
24801;SDS011;12898;50.520;12.152;2023-07-28T09:14:17;1.63;;;0.95;;
24801;SDS011;12898;50.520;12.152;2023-07-28T09:16:48;2.45;;;1.20;;
24801;SDS011;12898;50.520;12.152;2023-07-28T09:19:14;3.80;;;1.25;;
24801;SDS011;12898;50.520;12.152;2023-07-28T09:21:42;1.30;;;1.08;;
24801;SDS011;12898;50.520;12.152;2023-07-28T09:24:11;5.65;;;1.08;;
24801;SDS011;12898;50.520;12.152;2023-07-28T09:26:38;4.15;;;2.08;;
24801;SDS011;12898;50.520;12.152;2023-07-28T09:31:48;4.65;;;1.30;;
24801;SDS011;12898;50.520;12.152;2023-07-28T09:34:26;2.50;;;1.60;;
24801;SDS011;12898;50.520;12.152;2023-07-28T09:36:56;1.20;;;1.10;;
24801;SDS011;12898;50.520;12.152;2023-07-28T09:39:23;2.55;;;0.85;;
24801;SDS011;12898;50.520;12.152;2023-07-28T09:41:50;1.30;;;1.20;;
24801;SDS011;12898;50.520;12.152;2023-07-28T09:44:16;1.10;;;1.00;;
24801;SDS011;12898;50.520;12.152;2023-07-28T09:46:52;1.10;;;1.00;;
24801;SDS011;12898;50.520;12.152;2023-07-28T09:49:24;3.90;;;1.00;;
24801;SDS011;12898;50.520;12.152;2023-07-28T09:51:54;2.03;;;0.90;;
24801;SDS011;12898;50.520;12.152;2023-07-28T09:54:25;1.15;;;0.98;;
24801;SDS011;12898;50.520;12.152;2023-07-28T09:56:57;1.52;;;0.95;;
24801;SDS011;12898;50.520;12.152;2023-07-28T09:59:35;1.65;;;0.85;;
24801;SDS011;12898;50.520;12.152;2023-07-28T10:02:04;1.88;;;0.80;;
24801;SDS011;12898;50.520;12.152;2023-07-28T10:04:31;2.45;;;0.90;;
24801;SDS011;12898;50.520;12.152;2023-07-28T10:06:57;1.40;;;0.98;;
24801;SDS011;12898;50.520;12.152;2023-07-28T10:09:24;0.95;;;0.80;;
24801;SDS011;12898;50.520;12.152;2023-07-28T10:11:53;1.83;;;0.98;;
24801;SDS011;12898;50.520;12.152;2023-07-28T10:14:27;1.17;;;0.98;;
24801;SDS011;12898;50.520;12.152;2023-07-28T10:17:02;1.13;;;1.00;;
24801;SDS011;12898;50.520;12.152;2023-07-28T10:19:33;1.60;;;0.93;;
24801;SDS011;12898;50.520;12.152;2023-07-28T10:22:00;1.10;;;1.00;;
24801;SDS011;12898;50.520;12.152;2023-07-28T10:24:52;2.28;;;1.20;;
24801;SDS011;12898;50.520;12.152;2023-07-28T10:27:30;0.80;;;0.80;;
24801;SDS011;12898;50.520;12.152;2023-07-28T10:30:00;0.85;;;0.77;;
24801;SDS011;12898;50.520;12.152;2023-07-28T10:32:38;2.40;;;0.88;;
24801;SDS011;12898;50.520;12.152;2023-07-28T10:35:07;0.95;;;0.82;;
24801;SDS011;12898;50.520;12.152;2023-07-28T10:37:35;0.75;;;0.75;;
24801;SDS011;12898;50.520;12.152;2023-07-28T10:42:55;2.17;;;1.10;;
24801;SDS011;12898;50.520;12.152;2023-07-28T10:45:23;1.55;;;1.15;;
24801;SDS011;12898;50.520;12.152;2023-07-28T10:47:52;1.15;;;1.00;;
24801;SDS011;12898;50.520;12.152;2023-07-28T10:50:22;1.63;;;1.23;;
24801;SDS011;12898;50.520;12.152;2023-07-28T10:52:48;1.90;;;0.98;;
24801;SDS011;12898;50.520;12.152;2023-07-28T10:55:15;1.20;;;1.10;;
24801;SDS011;12898;50.520;12.152;2023-07-28T10:57:43;1.20;;;1.10;;
24801;SDS011;12898;50.520;12.152;2023-07-28T11:00:11;1.10;;;1.00;;
24801;SDS011;12898;50.520;12.152;2023-07-28T11:02:46;3.08;;;1.10;;
24801;SDS011;12898;50.520;12.152;2023-07-28T11:05:24;1.23;;;1.13;;
24801;SDS011;12898;50.520;12.152;2023-07-28T11:07:55;1.05;;;0.95;;
24801;SDS011;12898;50.520;12.152;2023-07-28T11:10:23;1.17;;;1.08;;
24801;SDS011;12898;50.520;12.152;2023-07-28T11:12:50;1.33;;;1.10;;
24801;SDS011;12898;50.520;12.152;2023-07-28T11:15:17;0.88;;;0.82;;
24801;SDS011;12898;50.520;12.152;2023-07-28T11:17:48;1.00;;;0.90;;
24801;SDS011;12898;50.520;12.152;2023-07-28T11:22:44;1.52;;;1.10;;
24801;SDS011;12898;50.520;12.152;2023-07-28T11:25:11;0.80;;;0.80;;
24801;SDS011;12898;50.520;12.152;2023-07-28T11:27:38;0.95;;;0.80;;
24801;SDS011;12898;50.520;12.152;2023-07-28T11:30:08;1.75;;;0.88;;
24801;SDS011;12898;50.520;12.152;2023-07-28T11:32:35;3.10;;;0.90;;
24801;SDS011;12898;50.520;12.152;2023-07-28T11:35:02;1.20;;;1.10;;
24801;SDS011;12898;50.520;12.152;2023-07-28T11:37:36;0.80;;;0.80;;
24801;SDS011;12898;50.520;12.152;2023-07-28T11:40:03;1.30;;;1.20;;
24801;SDS011;12898;50.520;12.152;2023-07-28T11:42:34;1.17;;;0.90;;
24801;SDS011;12898;50.520;12.152;2023-07-28T11:45:06;1.30;;;1.20;;
24801;SDS011;12898;50.520;12.152;2023-07-28T11:47:33;2.05;;;0.90;;
24801;SDS011;12898;50.520;12.152;2023-07-28T11:49:59;2.80;;;1.20;;
24801;SDS011;12898;50.520;12.152;2023-07-28T11:52:32;1.77;;;1.10;;
24801;SDS011;12898;50.520;12.152;2023-07-28T11:55:00;1.63;;;1.00;;
24801;SDS011;12898;50.520;12.152;2023-07-28T11:57:27;1.10;;;1.00;;
24801;SDS011;12898;50.520;12.152;2023-07-28T11:59:58;1.17;;;1.00;;
24801;SDS011;12898;50.520;12.152;2023-07-28T12:02:30;1.50;;;1.00;;
24801;SDS011;12898;50.520;12.152;2023-07-28T12:04:58;1.15;;;0.82;;
24801;SDS011;12898;50.520;12.152;2023-07-28T12:07:33;1.88;;;1.30;;
24801;SDS011;12898;50.520;12.152;2023-07-28T12:10:03;1.20;;;1.00;;
24801;SDS011;12898;50.520;12.152;2023-07-28T12:12:39;1.10;;;1.02;;
24801;SDS011;12898;50.520;12.152;2023-07-28T12:15:30;1.58;;;1.00;;
24801;SDS011;12898;50.520;12.152;2023-07-28T12:18:06;1.65;;;1.10;;
24801;SDS011;12898;50.520;12.152;2023-07-28T12:20:38;1.90;;;1.08;;
24801;SDS011;12898;50.520;12.152;2023-07-28T12:23:12;0.88;;;0.88;;
24801;SDS011;12898;50.520;12.152;2023-07-28T12:25:42;1.58;;;0.77;;
24801;SDS011;12898;50.520;12.152;2023-07-28T12:28:09;2.03;;;0.85;;
24801;SDS011;12898;50.520;12.152;2023-07-28T12:30:35;2.28;;;0.90;;
24801;SDS011;12898;50.520;12.152;2023-07-28T12:33:02;0.90;;;0.88;;
24801;SDS011;12898;50.520;12.152;2023-07-28T12:35:29;1.05;;;0.90;;
24801;SDS011;12898;50.520;12.152;2023-07-28T12:38:03;0.75;;;0.70;;
24801;SDS011;12898;50.520;12.152;2023-07-28T12:40:30;2.30;;;0.80;;
24801;SDS011;12898;50.520;12.152;2023-07-28T12:43:00;1.08;;;0.77;;
24801;SDS011;12898;50.520;12.152;2023-07-28T12:45:27;1.63;;;0.90;;
24801;SDS011;12898;50.520;12.152;2023-07-28T12:47:53;0.90;;;0.90;;
24801;SDS011;12898;50.520;12.152;2023-07-28T12:50:21;0.90;;;0.90;;
24801;SDS011;12898;50.520;12.152;2023-07-28T12:52:47;1.10;;;1.00;;
24801;SDS011;12898;50.520;12.152;2023-07-28T12:55:14;1.92;;;0.80;;
24801;SDS011;12898;50.520;12.152;2023-07-28T12:57:41;0.85;;;0.85;;
24801;SDS011;12898;50.520;12.152;2023-07-28T13:00:07;2.15;;;0.90;;
24801;SDS011;12898;50.520;12.152;2023-07-28T13:02:41;1.77;;;0.90;;
24801;SDS011;12898;50.520;12.152;2023-07-28T13:05:08;2.28;;;0.82;;
24801;SDS011;12898;50.520;12.152;2023-07-28T13:07:37;1.20;;;0.90;;
24801;SDS011;12898;50.520;12.152;2023-07-28T13:10:05;1.77;;;0.90;;
24801;SDS011;12898;50.520;12.152;2023-07-28T13:12:33;0.75;;;0.75;;
24801;SDS011;12898;50.520;12.152;2023-07-28T13:14:59;2.22;;;0.75;;
24801;SDS011;12898;50.520;12.152;2023-07-28T13:17:25;2.58;;;0.98;;
24801;SDS011;12898;50.520;12.152;2023-07-28T13:19:51;0.88;;;0.73;;
24801;SDS011;12898;50.520;12.152;2023-07-28T13:22:16;2.92;;;0.70;;
24801;SDS011;12898;50.520;12.152;2023-07-28T13:24:42;0.60;;;0.60;;
24801;SDS011;12898;50.520;12.152;2023-07-28T13:27:08;0.70;;;0.70;;
24801;SDS011;12898;50.520;12.152;2023-07-28T13:29:34;1.48;;;0.63;;
24801;SDS011;12898;50.520;12.152;2023-07-28T13:32:00;2.15;;;0.80;;
24801;SDS011;12898;50.520;12.152;2023-07-28T13:34:26;0.85;;;0.85;;
24801;SDS011;12898;50.520;12.152;2023-07-28T13:36:52;1.40;;;1.08;;
24801;SDS011;12898;50.520;12.152;2023-07-28T13:39:19;1.08;;;0.80;;
24801;SDS011;12898;50.520;12.152;2023-07-28T13:41:45;0.80;;;0.80;;
24801;SDS011;12898;50.520;12.152;2023-07-28T13:44:11;1.25;;;0.98;;
24801;SDS011;12898;50.520;12.152;2023-07-28T13:46:36;0.70;;;0.70;;
24801;SDS011;12898;50.520;12.152;2023-07-28T13:49:02;1.10;;;0.90;;
24801;SDS011;12898;50.520;12.152;2023-07-28T13:51:28;0.70;;;0.70;;
24801;SDS011;12898;50.520;12.152;2023-07-28T13:53:54;2.17;;;0.90;;
24801;SDS011;12898;50.520;12.152;2023-07-28T13:56:19;1.73;;;1.05;;
24801;SDS011;12898;50.520;12.152;2023-07-28T13:58:45;2.13;;;0.98;;
24801;SDS011;12898;50.520;12.152;2023-07-28T14:01:11;1.42;;;0.93;;
24801;SDS011;12898;50.520;12.152;2023-07-28T14:03:36;1.42;;;0.75;;
24801;SDS011;12898;50.520;12.152;2023-07-28T14:06:02;0.70;;;0.70;;
24801;SDS011;12898;50.520;12.152;2023-07-28T14:08:28;0.70;;;0.70;;
24801;SDS011;12898;50.520;12.152;2023-07-28T14:10:54;0.50;;;0.50;;
24801;SDS011;12898;50.520;12.152;2023-07-28T14:13:20;0.60;;;0.60;;
24801;SDS011;12898;50.520;12.152;2023-07-28T14:15:46;0.52;;;0.50;;
24801;SDS011;12898;50.520;12.152;2023-07-28T14:18:12;0.75;;;0.70;;
24801;SDS011;12898;50.520;12.152;2023-07-28T14:20:38;0.82;;;0.82;;
24801;SDS011;12898;50.520;12.152;2023-07-28T14:23:08;4.10;;;1.00;;
24801;SDS011;12898;50.520;12.152;2023-07-28T14:25:50;1.55;;;0.75;;
24801;SDS011;12898;50.520;12.152;2023-07-28T14:28:16;2.15;;;0.80;;
24801;SDS011;12898;50.520;12.152;2023-07-28T14:30:42;1.70;;;1.02;;
24801;SDS011;12898;50.520;12.152;2023-07-28T14:33:12;1.30;;;0.88;;
24801;SDS011;12898;50.520;12.152;2023-07-28T14:35:39;3.50;;;1.00;;
24801;SDS011;12898;50.520;12.152;2023-07-28T14:38:05;0.98;;;0.90;;
24801;SDS011;12898;50.520;12.152;2023-07-28T14:40:31;1.52;;;1.02;;
24801;SDS011;12898;50.520;12.152;2023-07-28T14:42:57;1.75;;;1.10;;
24801;SDS011;12898;50.520;12.152;2023-07-28T14:45:22;2.90;;;1.17;;